sensor_id;sensor_type;location;lat;lon;timestamp;P1;durP1;ratioP1;P2;durP2;ratioP2
29546;SDS011;40782;47.264;11.330;2022-09-29T00:01:10;0.60;;;0.60;;
29546;SDS011;40782;47.264;11.330;2022-09-29T00:03:37;0.90;;;0.60;;
29546;SDS011;40782;47.264;11.330;2022-09-29T00:06:10;0.60;;;0.60;;
29546;SDS011;40782;47.264;11.330;2022-09-29T00:08:39;0.50;;;0.50;;
29546;SDS011;40782;47.264;11.330;2022-09-29T00:11:08;0.60;;;0.60;;
29546;SDS011;40782;47.264;11.330;2022-09-29T00:13:37;0.68;;;0.68;;
29546;SDS011;40782;47.264;11.330;2022-09-29T00:16:04;0.50;;;0.50;;
29546;SDS011;40782;47.264;11.330;2022-09-29T00:18:32;0.68;;;0.63;;
29546;SDS011;40782;47.264;11.330;2022-09-29T00:21:01;2.33;;;0.70;;
29546;SDS011;40782;47.264;11.330;2022-09-29T00:23:30;0.60;;;0.50;;
29546;SDS011;40782;47.264;11.330;2022-09-29T00:26:00;0.85;;;0.85;;
29546;SDS011;40782;47.264;11.330;2022-09-29T00:28:30;0.50;;;0.50;;
29546;SDS011;40782;47.264;11.330;2022-09-29T00:30:58;0.60;;;0.60;;
29546;SDS011;40782;47.264;11.330;2022-09-29T00:33:27;0.55;;;0.55;;
29546;SDS011;40782;47.264;11.330;2022-09-29T00:35:56;0.60;;;0.60;;
29546;SDS011;40782;47.264;11.330;2022-09-29T00:38:25;1.55;;;0.40;;
29546;SDS011;40782;47.264;11.330;2022-09-29T00:40:52;1.15;;;0.70;;
29546;SDS011;40782;47.264;11.330;2022-09-29T00:43:20;1.40;;;0.50;;
29546;SDS011;40782;47.264;11.330;2022-09-29T00:45:51;0.60;;;0.60;;
29546;SDS011;40782;47.264;11.330;2022-09-29T00:48:23;0.57;;;0.57;;
29546;SDS011;40782;47.264;11.330;2022-09-29T00:50:56;0.50;;;0.50;;
29546;SDS011;40782;47.264;11.330;2022-09-29T00:53:23;0.60;;;0.57;;
29546;SDS011;40782;47.264;11.330;2022-09-29T00:55:52;0.50;;;0.50;;
29546;SDS011;40782;47.264;11.330;2022-09-29T00:58:27;0.60;;;0.60;;
29546;SDS011;40782;47.264;11.330;2022-09-29T01:00:58;0.60;;;0.60;;
29546;SDS011;40782;47.264;11.330;2022-09-29T01:03:26;2.05;;;0.80;;
29546;SDS011;40782;47.264;11.330;2022-09-29T01:05:57;0.52;;;0.52;;
29546;SDS011;40782;47.264;11.330;2022-09-29T01:08:29;0.63;;;0.63;;
29546;SDS011;40782;47.264;11.330;2022-09-29T01:11:02;0.93;;;0.93;;
29546;SDS011;40782;47.264;11.330;2022-09-29T01:13:31;1.33;;;0.90;;
29546;SDS011;40782;47.264;11.330;2022-09-29T01:16:01;0.80;;;0.80;;
29546;SDS011;40782;47.264;11.330;2022-09-29T01:18:30;0.90;;;0.90;;
29546;SDS011;40782;47.264;11.330;2022-09-29T01:21:00;1.17;;;0.90;;
29546;SDS011;40782;47.264;11.330;2022-09-29T01:26:47;0.82;;;0.80;;
29546;SDS011;40782;47.264;11.330;2022-09-29T01:32:35;0.70;;;0.70;;
29546;SDS011;40782;47.264;11.330;2022-09-29T01:35:11;1.10;;;0.80;;
29546;SDS011;40782;47.264;11.330;2022-09-29T01:37:48;0.85;;;0.85;;
29546;SDS011;40782;47.264;11.330;2022-09-29T01:40:25;0.80;;;0.80;;
29546;SDS011;40782;47.264;11.330;2022-09-29T01:43:02;0.70;;;0.70;;
29546;SDS011;40782;47.264;11.330;2022-09-29T01:45:33;1.00;;;0.90;;
29546;SDS011;40782;47.264;11.330;2022-09-29T01:48:05;1.27;;;0.75;;
29546;SDS011;40782;47.264;11.330;2022-09-29T01:50:37;0.70;;;0.70;;
29546;SDS011;40782;47.264;11.330;2022-09-29T01:53:10;0.80;;;0.80;;
29546;SDS011;40782;47.264;11.330;2022-09-29T01:55:41;0.80;;;0.80;;
29546;SDS011;40782;47.264;11.330;2022-09-29T01:58:13;0.85;;;0.75;;
29546;SDS011;40782;47.264;11.330;2022-09-29T02:00:44;1.05;;;1.00;;
29546;SDS011;40782;47.264;11.330;2022-09-29T02:03:21;0.80;;;0.80;;
29546;SDS011;40782;47.264;11.330;2022-09-29T02:05:54;0.70;;;0.70;;
29546;SDS011;40782;47.264;11.330;2022-09-29T02:08:24;0.93;;;0.80;;
29546;SDS011;40782;47.264;11.330;2022-09-29T02:10:58;0.88;;;0.88;;
29546;SDS011;40782;47.264;11.330;2022-09-29T02:13:29;0.90;;;0.90;;
29546;SDS011;40782;47.264;11.330;2022-09-29T02:15:58;2.03;;;0.80;;
29546;SDS011;40782;47.264;11.330;2022-09-29T02:18:31;2.15;;;0.68;;
29546;SDS011;40782;47.264;11.330;2022-09-29T02:21:08;0.70;;;0.70;;
29546;SDS011;40782;47.264;11.330;2022-09-29T02:23:35;0.90;;;0.90;;
29546;SDS011;40782;47.264;11.330;2022-09-29T02:26:02;0.80;;;0.80;;
29546;SDS011;40782;47.264;11.330;2022-09-29T02:28:30;0.73;;;0.73;;
29546;SDS011;40782;47.264;11.330;2022-09-29T02:30:57;1.27;;;1.05;;
29546;SDS011;40782;47.264;11.330;2022-09-29T02:33:28;1.17;;;1.08;;
29546;SDS011;40782;47.264;11.330;2022-09-29T02:35:59;1.50;;;0.80;;
29546;SDS011;40782;47.264;11.330;2022-09-29T02:38:40;0.90;;;0.90;;
29546;SDS011;40782;47.264;11.330;2022-09-29T02:41:15;1.15;;;0.98;;
29546;SDS011;40782;47.264;11.330;2022-09-29T02:43:59;1.00;;;1.00;;
29546;SDS011;40782;47.264;11.330;2022-09-29T02:46:52;1.42;;;0.70;;
29546;SDS011;40782;47.264;11.330;2022-09-29T02:49:37;0.77;;;0.77;;
29546;SDS011;40782;47.264;11.330;2022-09-29T02:52:19;0.88;;;0.88;;
29546;SDS011;40782;47.264;11.330;2022-09-29T02:54:54;1.20;;;1.10;;
29546;SDS011;40782;47.264;11.330;2022-09-29T02:57:30;0.90;;;0.90;;
29546;SDS011;40782;47.264;11.330;2022-09-29T03:00:05;1.17;;;1.08;;
29546;SDS011;40782;47.264;11.330;2022-09-29T03:02:35;1.35;;;1.35;;
29546;SDS011;40782;47.264;11.330;2022-09-29T03:05:03;1.08;;;1.08;;
29546;SDS011;40782;47.264;11.330;2022-09-29T03:07:33;1.15;;;1.05;;
29546;SDS011;40782;47.264;11.330;2022-09-29T03:10:02;1.35;;;1.00;;
29546;SDS011;40782;47.264;11.330;2022-09-29T03:12:31;1.08;;;1.08;;
29546;SDS011;40782;47.264;11.330;2022-09-29T03:14:58;1.40;;;1.40;;
29546;SDS011;40782;47.264;11.330;2022-09-29T03:17:25;1.20;;;1.20;;
29546;SDS011;40782;47.264;11.330;2022-09-29T03:19:52;1.23;;;1.23;;
29546;SDS011;40782;47.264;11.330;2022-09-29T03:22:20;1.33;;;1.23;;
29546;SDS011;40782;47.264;11.330;2022-09-29T03:24:50;1.30;;;1.13;;
29546;SDS011;40782;47.264;11.330;2022-09-29T03:27:17;1.20;;;1.20;;
29546;SDS011;40782;47.264;11.330;2022-09-29T03:29:44;1.17;;;1.17;;
29546;SDS011;40782;47.264;11.330;2022-09-29T03:32:11;1.50;;;1.30;;
29546;SDS011;40782;47.264;11.330;2022-09-29T03:34:38;1.88;;;1.38;;
29546;SDS011;40782;47.264;11.330;2022-09-29T03:37:06;1.17;;;1.17;;
29546;SDS011;40782;47.264;11.330;2022-09-29T03:39:33;1.60;;;1.50;;
29546;SDS011;40782;47.264;11.330;2022-09-29T03:42:03;1.42;;;1.35;;
29546;SDS011;40782;47.264;11.330;2022-09-29T03:44:30;1.60;;;1.50;;
29546;SDS011;40782;47.264;11.330;2022-09-29T03:46:57;1.40;;;1.40;;
29546;SDS011;40782;47.264;11.330;2022-09-29T03:49:24;1.50;;;1.40;;
29546;SDS011;40782;47.264;11.330;2022-09-29T03:51:52;1.75;;;1.50;;
29546;SDS011;40782;47.264;11.330;2022-09-29T03:54:19;1.63;;;1.38;;
29546;SDS011;40782;47.264;11.330;2022-09-29T03:56:48;1.65;;;1.55;;
29546;SDS011;40782;47.264;11.330;2022-09-29T03:59:17;1.70;;;1.63;;
29546;SDS011;40782;47.264;11.330;2022-09-29T04:01:44;1.73;;;1.63;;
29546;SDS011;40782;47.264;11.330;2022-09-29T04:04:11;1.80;;;1.70;;
29546;SDS011;40782;47.264;11.330;2022-09-29T04:06:39;1.35;;;1.30;;
29546;SDS011;40782;47.264;11.330;2022-09-29T04:09:06;1.85;;;1.70;;
29546;SDS011;40782;47.264;11.330;2022-09-29T04:11:33;2.25;;;2.15;;
29546;SDS011;40782;47.264;11.330;2022-09-29T04:14:01;2.08;;;1.98;;
29546;SDS011;40782;47.264;11.330;2022-09-29T04:16:29;1.90;;;1.80;;
29546;SDS011;40782;47.264;11.330;2022-09-29T04:18:57;2.15;;;2.00;;
29546;SDS011;40782;47.264;11.330;2022-09-29T04:21:24;2.33;;;2.22;;
29546;SDS011;40782;47.264;11.330;2022-09-29T04:23:51;2.22;;;2.13;;
29546;SDS011;40782;47.264;11.330;2022-09-29T04:26:18;2.15;;;2.05;;
29546;SDS011;40782;47.264;11.330;2022-09-29T04:28:45;2.40;;;2.20;;
29546;SDS011;40782;47.264;11.330;2022-09-29T04:31:13;2.53;;;2.33;;
29546;SDS011;40782;47.264;11.330;2022-09-29T04:33:41;2.40;;;2.20;;
29546;SDS011;40782;47.264;11.330;2022-09-29T04:36:10;4.03;;;2.20;;
29546;SDS011;40782;47.264;11.330;2022-09-29T04:38:37;2.35;;;2.25;;
29546;SDS011;40782;47.264;11.330;2022-09-29T04:41:04;2.67;;;2.50;;
29546;SDS011;40782;47.264;11.330;2022-09-29T04:43:31;3.00;;;2.80;;
29546;SDS011;40782;47.264;11.330;2022-09-29T04:46:02;4.15;;;2.75;;
29546;SDS011;40782;47.264;11.330;2022-09-29T04:48:30;3.15;;;2.95;;
29546;SDS011;40782;47.264;11.330;2022-09-29T04:50:59;4.38;;;3.97;;
29546;SDS011;40782;47.264;11.330;2022-09-29T04:53:26;12.55;;;11.00;;
29546;SDS011;40782;47.264;11.330;2022-09-29T04:55:53;12.27;;;10.98;;
29546;SDS011;40782;47.264;11.330;2022-09-29T04:58:20;9.75;;;5.72;;
29546;SDS011;40782;47.264;11.330;2022-09-29T05:00:47;4.18;;;3.88;;
29546;SDS011;40782;47.264;11.330;2022-09-29T05:03:16;3.58;;;3.33;;
29546;SDS011;40782;47.264;11.330;2022-09-29T05:05:43;3.60;;;3.40;;
29546;SDS011;40782;47.264;11.330;2022-09-29T05:08:11;3.88;;;3.58;;
29546;SDS011;40782;47.264;11.330;2022-09-29T05:10:41;3.88;;;3.58;;
29546;SDS011;40782;47.264;11.330;2022-09-29T05:13:12;9.07;;;8.18;;
29546;SDS011;40782;47.264;11.330;2022-09-29T05:15:39;9.48;;;8.50;;
29546;SDS011;40782;47.264;11.330;2022-09-29T05:18:06;13.07;;;11.27;;
29546;SDS011;40782;47.264;11.330;2022-09-29T05:20:33;8.85;;;7.95;;
29546;SDS011;40782;47.264;11.330;2022-09-29T05:23:00;7.30;;;6.60;;
29546;SDS011;40782;47.264;11.330;2022-09-29T05:25:35;11.88;;;8.85;;
29546;SDS011;40782;47.264;11.330;2022-09-29T05:28:05;9.85;;;8.88;;
29546;SDS011;40782;47.264;11.330;2022-09-29T05:30:33;9.18;;;7.30;;
29546;SDS011;40782;47.264;11.330;2022-09-29T05:33:00;14.23;;;11.73;;
29546;SDS011;40782;47.264;11.330;2022-09-29T05:35:28;12.88;;;11.48;;
29546;SDS011;40782;47.264;11.330;2022-09-29T05:37:55;9.02;;;8.18;;
29546;SDS011;40782;47.264;11.330;2022-09-29T05:40:22;7.97;;;7.28;;
29546;SDS011;40782;47.264;11.330;2022-09-29T05:42:52;9.55;;;7.90;;
29546;SDS011;40782;47.264;11.330;2022-09-29T05:45:19;7.00;;;6.40;;
29546;SDS011;40782;47.264;11.330;2022-09-29T05:47:46;7.78;;;7.05;;
29546;SDS011;40782;47.264;11.330;2022-09-29T05:50:14;15.45;;;11.48;;
29546;SDS011;40782;47.264;11.330;2022-09-29T05:52:41;14.70;;;13.02;;
29546;SDS011;40782;47.264;11.330;2022-09-29T05:55:12;16.38;;;13.98;;
29546;SDS011;40782;47.264;11.330;2022-09-29T05:57:40;12.95;;;11.68;;
29546;SDS011;40782;47.264;11.330;2022-09-29T06:00:09;10.75;;;9.75;;
29546;SDS011;40782;47.264;11.330;2022-09-29T06:02:36;8.40;;;7.57;;
29546;SDS011;40782;47.264;11.330;2022-09-29T06:05:04;7.03;;;6.22;;
29546;SDS011;40782;47.264;11.330;2022-09-29T06:07:31;6.68;;;6.07;;
29546;SDS011;40782;47.264;11.330;2022-09-29T06:09:58;5.88;;;5.40;;
29546;SDS011;40782;47.264;11.330;2022-09-29T06:12:26;6.93;;;6.22;;
29546;SDS011;40782;47.264;11.330;2022-09-29T06:14:53;6.03;;;5.53;;
29546;SDS011;40782;47.264;11.330;2022-09-29T06:17:21;5.63;;;5.13;;
29546;SDS011;40782;47.264;11.330;2022-09-29T06:19:49;6.63;;;6.00;;
29546;SDS011;40782;47.264;11.330;2022-09-29T06:22:18;6.95;;;5.97;;
29546;SDS011;40782;47.264;11.330;2022-09-29T06:24:45;6.28;;;5.78;;
29546;SDS011;40782;47.264;11.330;2022-09-29T06:27:12;6.82;;;5.97;;
29546;SDS011;40782;47.264;11.330;2022-09-29T06:29:41;7.18;;;6.57;;
29546;SDS011;40782;47.264;11.330;2022-09-29T06:32:08;7.47;;;6.80;;
29546;SDS011;40782;47.264;11.330;2022-09-29T06:34:37;6.47;;;5.90;;
29546;SDS011;40782;47.264;11.330;2022-09-29T06:37:24;5.78;;;5.28;;
29546;SDS011;40782;47.264;11.330;2022-09-29T06:40:00;6.97;;;6.00;;
29546;SDS011;40782;47.264;11.330;2022-09-29T06:42:27;6.82;;;6.13;;
29546;SDS011;40782;47.264;11.330;2022-09-29T06:44:55;7.65;;;6.95;;
29546;SDS011;40782;47.264;11.330;2022-09-29T06:47:22;6.60;;;6.00;;
29546;SDS011;40782;47.264;11.330;2022-09-29T06:49:51;5.90;;;5.25;;
29546;SDS011;40782;47.264;11.330;2022-09-29T06:52:18;5.35;;;4.88;;
29546;SDS011;40782;47.264;11.330;2022-09-29T06:54:45;5.28;;;4.38;;
29546;SDS011;40782;47.264;11.330;2022-09-29T06:57:12;5.88;;;4.80;;
29546;SDS011;40782;47.264;11.330;2022-09-29T06:59:39;4.93;;;4.53;;
29546;SDS011;40782;47.264;11.330;2022-09-29T07:02:08;5.45;;;4.90;;
29546;SDS011;40782;47.264;11.330;2022-09-29T07:04:36;8.52;;;6.72;;
29546;SDS011;40782;47.264;11.330;2022-09-29T07:07:04;10.30;;;8.13;;
29546;SDS011;40782;47.264;11.330;2022-09-29T07:09:32;7.63;;;6.93;;
29546;SDS011;40782;47.264;11.330;2022-09-29T07:12:08;6.72;;;6.07;;
29546;SDS011;40782;47.264;11.330;2022-09-29T07:14:36;7.53;;;6.43;;
29546;SDS011;40782;47.264;11.330;2022-09-29T07:17:03;6.22;;;5.20;;
29546;SDS011;40782;47.264;11.330;2022-09-29T07:19:30;5.63;;;5.13;;
29546;SDS011;40782;47.264;11.330;2022-09-29T07:21:57;5.43;;;4.93;;
29546;SDS011;40782;47.264;11.330;2022-09-29T07:24:26;5.72;;;5.22;;
29546;SDS011;40782;47.264;11.330;2022-09-29T07:26:53;10.55;;;5.93;;
29546;SDS011;40782;47.264;11.330;2022-09-29T07:29:20;7.70;;;6.00;;
29546;SDS011;40782;47.264;11.330;2022-09-29T07:31:47;5.72;;;5.22;;
29546;SDS011;40782;47.264;11.330;2022-09-29T07:34:16;7.18;;;6.00;;
29546;SDS011;40782;47.264;11.330;2022-09-29T07:36:43;6.30;;;5.68;;
29546;SDS011;40782;47.264;11.330;2022-09-29T07:39:10;4.82;;;4.32;;
29546;SDS011;40782;47.264;11.330;2022-09-29T07:41:39;6.13;;;5.53;;
29546;SDS011;40782;47.264;11.330;2022-09-29T07:44:06;5.70;;;5.10;;
29546;SDS011;40782;47.264;11.330;2022-09-29T07:46:34;6.55;;;5.78;;
29546;SDS011;40782;47.264;11.330;2022-09-29T07:49:01;5.93;;;5.43;;
29546;SDS011;40782;47.264;11.330;2022-09-29T07:51:28;5.60;;;5.03;;
29546;SDS011;40782;47.264;11.330;2022-09-29T07:54:00;5.75;;;5.25;;
29546;SDS011;40782;47.264;11.330;2022-09-29T07:56:28;7.63;;;5.70;;
29546;SDS011;40782;47.264;11.330;2022-09-29T07:58:56;5.90;;;4.95;;
29546;SDS011;40782;47.264;11.330;2022-09-29T08:01:23;6.38;;;5.03;;
29546;SDS011;40782;47.264;11.330;2022-09-29T08:03:51;7.85;;;4.82;;
29546;SDS011;40782;47.264;11.330;2022-09-29T08:06:20;5.63;;;4.80;;
29546;SDS011;40782;47.264;11.330;2022-09-29T08:08:48;7.15;;;4.95;;
29546;SDS011;40782;47.264;11.330;2022-09-29T08:11:16;5.50;;;5.00;;
29546;SDS011;40782;47.264;11.330;2022-09-29T08:13:45;5.28;;;4.80;;
29546;SDS011;40782;47.264;11.330;2022-09-29T08:16:14;5.60;;;5.07;;
29546;SDS011;40782;47.264;11.330;2022-09-29T08:18:42;7.20;;;5.68;;
29546;SDS011;40782;47.264;11.330;2022-09-29T08:21:10;5.85;;;5.28;;
29546;SDS011;40782;47.264;11.330;2022-09-29T08:23:39;7.70;;;5.45;;
29546;SDS011;40782;47.264;11.330;2022-09-29T08:26:08;6.47;;;5.82;;
29546;SDS011;40782;47.264;11.330;2022-09-29T08:28:38;6.88;;;5.85;;
29546;SDS011;40782;47.264;11.330;2022-09-29T08:31:06;7.00;;;5.70;;
29546;SDS011;40782;47.264;11.330;2022-09-29T08:33:36;6.43;;;5.82;;
29546;SDS011;40782;47.264;11.330;2022-09-29T08:36:04;7.25;;;5.85;;
29546;SDS011;40782;47.264;11.330;2022-09-29T08:38:39;7.50;;;4.93;;
29546;SDS011;40782;47.264;11.330;2022-09-29T08:41:11;5.00;;;4.50;;
29546;SDS011;40782;47.264;11.330;2022-09-29T08:43:52;3.85;;;3.42;;
29546;SDS011;40782;47.264;11.330;2022-09-29T08:46:25;3.70;;;3.50;;
29546;SDS011;40782;47.264;11.330;2022-09-29T08:48:57;3.65;;;3.22;;
29546;SDS011;40782;47.264;11.330;2022-09-29T08:51:28;3.45;;;3.15;;
29546;SDS011;40782;47.264;11.330;2022-09-29T08:54:01;4.25;;;3.17;;
29546;SDS011;40782;47.264;11.330;2022-09-29T08:56:35;4.43;;;3.10;;
29546;SDS011;40782;47.264;11.330;2022-09-29T08:59:03;2.88;;;2.67;;
29546;SDS011;40782;47.264;11.330;2022-09-29T09:01:34;4.47;;;3.90;;
29546;SDS011;40782;47.264;11.330;2022-09-29T09:04:17;4.18;;;3.72;;
29546;SDS011;40782;47.264;11.330;2022-09-29T09:07:08;4.70;;;3.97;;
29546;SDS011;40782;47.264;11.330;2022-09-29T09:09:47;4.22;;;3.78;;
29546;SDS011;40782;47.264;11.330;2022-09-29T09:12:30;3.67;;;3.38;;
29546;SDS011;40782;47.264;11.330;2022-09-29T09:15:16;5.57;;;4.30;;
29546;SDS011;40782;47.264;11.330;2022-09-29T09:21:11;4.88;;;3.75;;
29546;SDS011;40782;47.264;11.330;2022-09-29T09:23:47;4.07;;;3.67;;
29546;SDS011;40782;47.264;11.330;2022-09-29T09:26:19;5.45;;;3.95;;
29546;SDS011;40782;47.264;11.330;2022-09-29T09:28:51;4.13;;;3.75;;
29546;SDS011;40782;47.264;11.330;2022-09-29T09:31:27;3.38;;;3.17;;
29546;SDS011;40782;47.264;11.330;2022-09-29T09:33:59;3.33;;;3.03;;
29546;SDS011;40782;47.264;11.330;2022-09-29T09:36:35;3.47;;;3.17;;
29546;SDS011;40782;47.264;11.330;2022-09-29T09:39:05;3.60;;;3.08;;
29546;SDS011;40782;47.264;11.330;2022-09-29T09:41:38;3.92;;;3.47;;
29546;SDS011;40782;47.264;11.330;2022-09-29T09:44:09;3.50;;;3.20;;
29546;SDS011;40782;47.264;11.330;2022-09-29T09:46:44;4.07;;;3.38;;
29546;SDS011;40782;47.264;11.330;2022-09-29T09:49:16;4.47;;;3.35;;
29546;SDS011;40782;47.264;11.330;2022-09-29T09:51:49;3.60;;;3.30;;
29546;SDS011;40782;47.264;11.330;2022-09-29T09:54:26;3.83;;;3.47;;
29546;SDS011;40782;47.264;11.330;2022-09-29T09:57:02;3.92;;;3.63;;
29546;SDS011;40782;47.264;11.330;2022-09-29T09:59:44;3.55;;;3.35;;
29546;SDS011;40782;47.264;11.330;2022-09-29T10:02:22;3.10;;;2.88;;
29546;SDS011;40782;47.264;11.330;2022-09-29T10:04:50;3.25;;;2.90;;
29546;SDS011;40782;47.264;11.330;2022-09-29T10:07:20;3.50;;;3.20;;
29546;SDS011;40782;47.264;11.330;2022-09-29T10:09:49;3.10;;;2.90;;
29546;SDS011;40782;47.264;11.330;2022-09-29T10:12:19;3.78;;;3.35;;
29546;SDS011;40782;47.264;11.330;2022-09-29T10:14:49;3.80;;;2.83;;
29546;SDS011;40782;47.264;11.330;2022-09-29T10:17:20;2.35;;;2.22;;
29546;SDS011;40782;47.264;11.330;2022-09-29T10:19:51;2.40;;;2.20;;
29546;SDS011;40782;47.264;11.330;2022-09-29T10:22:23;2.83;;;2.63;;
29546;SDS011;40782;47.264;11.330;2022-09-29T10:24:51;3.17;;;2.53;;
29546;SDS011;40782;47.264;11.330;2022-09-29T10:27:22;2.70;;;2.55;;
29546;SDS011;40782;47.264;11.330;2022-09-29T10:29:54;2.63;;;2.53;;
29546;SDS011;40782;47.264;11.330;2022-09-29T10:32:24;3.25;;;2.30;;
29546;SDS011;40782;47.264;11.330;2022-09-29T10:35:02;2.63;;;2.53;;
29546;SDS011;40782;47.264;11.330;2022-09-29T10:37:35;2.90;;;2.70;;
29546;SDS011;40782;47.264;11.330;2022-09-29T10:40:12;3.60;;;2.95;;
29546;SDS011;40782;47.264;11.330;2022-09-29T10:42:45;2.60;;;2.40;;
29546;SDS011;40782;47.264;11.330;2022-09-29T10:45:15;2.50;;;2.40;;
29546;SDS011;40782;47.264;11.330;2022-09-29T10:47:44;2.72;;;2.53;;
29546;SDS011;40782;47.264;11.330;2022-09-29T10:50:14;2.90;;;2.65;;
29546;SDS011;40782;47.264;11.330;2022-09-29T10:52:46;2.47;;;2.25;;
29546;SDS011;40782;47.264;11.330;2022-09-29T10:55:18;2.53;;;2.33;;
29546;SDS011;40782;47.264;11.330;2022-09-29T10:57:47;2.78;;;2.60;;
29546;SDS011;40782;47.264;11.330;2022-09-29T11:00:28;3.05;;;2.15;;
29546;SDS011;40782;47.264;11.330;2022-09-29T11:03:00;3.65;;;2.67;;
29546;SDS011;40782;47.264;11.330;2022-09-29T11:05:31;2.80;;;2.60;;
29546;SDS011;40782;47.264;11.330;2022-09-29T11:08:01;2.70;;;2.50;;
29546;SDS011;40782;47.264;11.330;2022-09-29T11:10:29;2.67;;;2.47;;
29546;SDS011;40782;47.264;11.330;2022-09-29T11:12:57;3.63;;;2.67;;
29546;SDS011;40782;47.264;11.330;2022-09-29T11:15:39;3.40;;;2.50;;
29546;SDS011;40782;47.264;11.330;2022-09-29T11:18:16;3.47;;;2.65;;
29546;SDS011;40782;47.264;11.330;2022-09-29T11:20:47;3.13;;;2.83;;
29546;SDS011;40782;47.264;11.330;2022-09-29T11:23:27;3.22;;;2.53;;
29546;SDS011;40782;47.264;11.330;2022-09-29T11:26:09;4.00;;;2.67;;
29546;SDS011;40782;47.264;11.330;2022-09-29T11:28:46;3.13;;;2.83;;
29546;SDS011;40782;47.264;11.330;2022-09-29T11:31:31;3.17;;;2.97;;
29546;SDS011;40782;47.264;11.330;2022-09-29T11:34:20;2.67;;;2.47;;
29546;SDS011;40782;47.264;11.330;2022-09-29T11:37:13;3.00;;;2.80;;
29546;SDS011;40782;47.264;11.330;2022-09-29T11:39:54;3.05;;;2.85;;
29546;SDS011;40782;47.264;11.330;2022-09-29T11:42:36;2.50;;;2.30;;
29546;SDS011;40782;47.264;11.330;2022-09-29T11:45:24;3.55;;;2.70;;
29546;SDS011;40782;47.264;11.330;2022-09-29T11:48:08;2.65;;;2.53;;
29546;SDS011;40782;47.264;11.330;2022-09-29T11:50:51;2.50;;;2.40;;
29546;SDS011;40782;47.264;11.330;2022-09-29T11:53:30;2.60;;;2.40;;
29546;SDS011;40782;47.264;11.330;2022-09-29T11:56:17;2.40;;;2.22;;
29546;SDS011;40782;47.264;11.330;2022-09-29T12:01:56;3.00;;;2.65;;
29546;SDS011;40782;47.264;11.330;2022-09-29T12:04:37;2.33;;;2.22;;
29546;SDS011;40782;47.264;11.330;2022-09-29T12:07:19;2.75;;;2.55;;
29546;SDS011;40782;47.264;11.330;2022-09-29T12:10:15;2.08;;;1.98;;
29546;SDS011;40782;47.264;11.330;2022-09-29T12:12:55;2.20;;;2.10;;
29546;SDS011;40782;47.264;11.330;2022-09-29T12:15:38;1.93;;;1.70;;
29546;SDS011;40782;47.264;11.330;2022-09-29T12:18:15;1.90;;;1.80;;
29546;SDS011;40782;47.264;11.330;2022-09-29T12:20:47;2.28;;;2.08;;
29546;SDS011;40782;47.264;11.330;2022-09-29T12:23:17;2.03;;;1.92;;
29546;SDS011;40782;47.264;11.330;2022-09-29T12:25:51;1.58;;;1.48;;
29546;SDS011;40782;47.264;11.330;2022-09-29T12:28:24;2.88;;;1.85;;
29546;SDS011;40782;47.264;11.330;2022-09-29T12:30:56;2.65;;;1.88;;
29546;SDS011;40782;47.264;11.330;2022-09-29T12:33:28;2.07;;;1.97;;
29546;SDS011;40782;47.264;11.330;2022-09-29T12:36:06;1.90;;;1.80;;
29546;SDS011;40782;47.264;11.330;2022-09-29T12:38:59;1.83;;;1.70;;
29546;SDS011;40782;47.264;11.330;2022-09-29T12:41:34;2.20;;;2.00;;
29546;SDS011;40782;47.264;11.330;2022-09-29T12:44:07;3.13;;;2.38;;
29546;SDS011;40782;47.264;11.330;2022-09-29T12:46:44;2.22;;;1.95;;
29546;SDS011;40782;47.264;11.330;2022-09-29T12:49:15;2.00;;;1.90;;
29546;SDS011;40782;47.264;11.330;2022-09-29T12:51:48;2.10;;;1.90;;
29546;SDS011;40782;47.264;11.330;2022-09-29T12:54:17;2.05;;;1.85;;
29546;SDS011;40782;47.264;11.330;2022-09-29T12:56:49;2.45;;;2.03;;
29546;SDS011;40782;47.264;11.330;2022-09-29T12:59:32;3.55;;;2.28;;
29546;SDS011;40782;47.264;11.330;2022-09-29T13:02:09;4.93;;;2.45;;
29546;SDS011;40782;47.264;11.330;2022-09-29T13:04:59;2.58;;;2.38;;
29546;SDS011;40782;47.264;11.330;2022-09-29T13:07:49;2.47;;;2.25;;
29546;SDS011;40782;47.264;11.330;2022-09-29T13:10:35;3.25;;;2.95;;
29546;SDS011;40782;47.264;11.330;2022-09-29T13:16:26;3.20;;;2.90;;
29546;SDS011;40782;47.264;11.330;2022-09-29T13:19:11;3.83;;;2.90;;
29546;SDS011;40782;47.264;11.330;2022-09-29T13:21:52;2.53;;;2.33;;
29546;SDS011;40782;47.264;11.330;2022-09-29T13:24:34;2.10;;;2.00;;
29546;SDS011;40782;47.264;11.330;2022-09-29T13:27:14;2.42;;;2.30;;
29546;SDS011;40782;47.264;11.330;2022-09-29T13:29:54;2.30;;;2.10;;
29546;SDS011;40782;47.264;11.330;2022-09-29T13:32:28;2.40;;;2.10;;
29546;SDS011;40782;47.264;11.330;2022-09-29T13:34:57;4.78;;;2.67;;
29546;SDS011;40782;47.264;11.330;2022-09-29T13:37:34;2.15;;;2.05;;
29546;SDS011;40782;47.264;11.330;2022-09-29T13:40:16;2.17;;;2.08;;
29546;SDS011;40782;47.264;11.330;2022-09-29T13:42:46;3.30;;;2.22;;
29546;SDS011;40782;47.264;11.330;2022-09-29T13:51:27;2.80;;;2.30;;
29546;SDS011;40782;47.264;11.330;2022-09-29T13:54:26;3.47;;;2.40;;
29546;SDS011;40782;47.264;11.330;2022-09-29T13:57:05;2.58;;;2.00;;
29546;SDS011;40782;47.264;11.330;2022-09-29T13:59:47;2.90;;;2.47;;
29546;SDS011;40782;47.264;11.330;2022-09-29T14:02:42;3.08;;;1.92;;
29546;SDS011;40782;47.264;11.330;2022-09-29T14:08:13;1.35;;;1.30;;
29546;SDS011;40782;47.264;11.330;2022-09-29T14:10:43;1.45;;;1.30;;
29546;SDS011;40782;47.264;11.330;2022-09-29T14:13:14;1.25;;;1.25;;
29546;SDS011;40782;47.264;11.330;2022-09-29T14:15:49;1.13;;;1.02;;
29546;SDS011;40782;47.264;11.330;2022-09-29T14:18:35;0.77;;;0.77;;
29546;SDS011;40782;47.264;11.330;2022-09-29T14:24:42;1.63;;;1.00;;
29546;SDS011;40782;47.264;11.330;2022-09-29T14:30:16;1.35;;;1.30;;
29546;SDS011;40782;47.264;11.330;2022-09-29T14:32:47;2.25;;;1.40;;
29546;SDS011;40782;47.264;11.330;2022-09-29T14:35:21;1.50;;;1.40;;
29546;SDS011;40782;47.264;11.330;2022-09-29T14:37:56;4.00;;;1.95;;
29546;SDS011;40782;47.264;11.330;2022-09-29T14:40:29;2.08;;;1.88;;
29546;SDS011;40782;47.264;11.330;2022-09-29T14:43:13;2.05;;;1.90;;
29546;SDS011;40782;47.264;11.330;2022-09-29T14:45:51;2.38;;;2.17;;
29546;SDS011;40782;47.264;11.330;2022-09-29T14:49:05;2.67;;;2.47;;
29546;SDS011;40782;47.264;11.330;2022-09-29T14:52:23;3.35;;;3.13;;
29546;SDS011;40782;47.264;11.330;2022-09-29T14:55:05;4.65;;;3.25;;
29546;SDS011;40782;47.264;11.330;2022-09-29T14:57:54;4.70;;;3.40;;
29546;SDS011;40782;47.264;11.330;2022-09-29T15:00:34;4.28;;;3.03;;
29546;SDS011;40782;47.264;11.330;2022-09-29T15:03:14;6.22;;;4.57;;
29546;SDS011;40782;47.264;11.330;2022-09-29T15:05:48;7.60;;;5.20;;
29546;SDS011;40782;47.264;11.330;2022-09-29T15:08:30;5.75;;;5.22;;
29546;SDS011;40782;47.264;11.330;2022-09-29T15:10:59;5.88;;;4.28;;
29546;SDS011;40782;47.264;11.330;2022-09-29T15:13:29;5.65;;;4.03;;
29546;SDS011;40782;47.264;11.330;2022-09-29T15:15:58;4.40;;;4.00;;
29546;SDS011;40782;47.264;11.330;2022-09-29T15:21:36;3.45;;;3.15;;
29546;SDS011;40782;47.264;11.330;2022-09-29T15:24:26;7.13;;;3.35;;
29546;SDS011;40782;47.264;11.330;2022-09-29T15:27:16;4.18;;;1.92;;
29546;SDS011;40782;47.264;11.330;2022-09-29T15:29:48;2.45;;;1.83;;
29546;SDS011;40782;47.264;11.330;2022-09-29T15:32:20;2.00;;;1.80;;
29546;SDS011;40782;47.264;11.330;2022-09-29T15:34:52;1.80;;;1.70;;
29546;SDS011;40782;47.264;11.330;2022-09-29T15:37:25;1.80;;;1.70;;
29546;SDS011;40782;47.264;11.330;2022-09-29T15:39:52;1.80;;;1.70;;